Time;durP1;ratioP1;P1;durP2;ratioP2;P2;SDS_P1;SDS_P2;PMS_P1;PMS_P2;Temp;Humidity;BMP_temperature;BMP_pressure;BME280_temperature;BME280_humidity;BME280_pressure;Samples;Min_cycle;Max_cycle;Signal;HPM_P1;HPM_P2
2023/04/24 00:00:41;;;;;;;;;;;11.00;99.90;;;;;;5048267;28;19937;-52
2023/04/24 00:03:08;;;;;;;;;;;11.00;99.90;;;;;;5034580;28;19936;-44
2023/04/24 00:05:34;;;;;;;;;;;11.00;99.90;;;;;;5049949;28;19987;-48
2023/04/24 00:08:01;;;;;;;;;;;11.00;99.90;;;;;;5033055;28;20375;-48
2023/04/24 00:10:27;;;;;;;;;;;11.00;99.90;;;;;;5051584;28;19999;-57
2023/04/24 00:12:54;;;;;;;;;;;11.00;99.90;;;;;;5058677;28;19938;-55
2023/04/24 00:15:22;;;;;;;;;;;11.00;99.90;;;;;;5052371;28;20056;-51
2023/04/24 00:17:49;;;;;;;;;;;10.90;99.90;;;;;;5052296;28;20392;-52
2023/04/24 00:20:15;;;;;;;;;;;10.90;99.90;;;;;;5063695;28;20499;-51
2023/04/24 00:22:42;;;;;;;;;;;10.90;99.90;;;;;;5072274;28;19937;-50
2023/04/24 00:25:09;;;;;;;;;;;10.90;99.90;;;;;;5051540;28;19935;-51
2023/04/24 00:27:36;;;;;;;;;;;10.90;99.90;;;;;;5043171;28;19968;-53
2023/04/24 00:30:04;;;;;;;;;;;10.90;99.90;;;;;;5032634;28;20027;-50
2023/04/24 00:32:32;;;;;;;;;;;10.90;99.90;;;;;;5049615;28;19932;-48
2023/04/24 00:34:59;;;;;;;;;;;10.90;99.90;;;;;;5060773;28;19940;-49
2023/04/24 00:37:25;;;;;;;;;;;10.80;99.90;;;;;;5071847;28;19955;-47
2023/04/24 00:39:52;;;;;;;;;;;10.90;99.90;;;;;;5058822;28;19937;-52
2023/04/24 00:42:18;;;;;;;;;;;10.90;99.90;;;;;;5034646;28;19985;-54
2023/04/24 00:44:45;;;;;;;;;;;10.90;99.90;;;;;;5035066;28;19979;-46
2023/04/24 00:47:12;;;;;;;;;;;10.90;99.90;;;;;;5063348;28;19936;-49
2023/04/24 00:49:40;;;;;;;;;;;10.90;99.90;;;;;;5045255;28;19932;-52
2023/04/24 00:52:08;;;;;;;;;;;10.90;99.90;;;;;;5053129;28;19993;-51
2023/04/24 00:54:35;;;;;;;;;;;10.90;99.90;;;;;;5045224;28;19962;-46
2023/04/24 00:57:02;;;;;;;;;;;10.80;99.90;;;;;;5047261;28;20397;-49
2023/04/24 00:59:28;;;;;;;;;;;10.80;99.90;;;;;;5031932;28;19936;-46
2023/04/24 01:01:55;;;;;;;;;;;10.70;99.90;;;;;;5051172;28;20014;-44
2023/04/24 01:04:22;;;;;;;;;;;10.70;99.90;;;;;;5058966;28;19964;-49
2023/04/24 01:06:50;;;;;;;;;;;10.70;99.90;;;;;;5058855;28;20043;-50
2023/04/24 01:09:16;;;;;;;;;;;10.70;99.90;;;;;;5043986;28;20028;-52
2023/04/24 01:11:43;;;;;;;;;;;10.70;99.90;;;;;;5053094;28;20451;-50
2023/04/24 01:14:10;;;;;;;;;;;10.70;99.90;;;;;;5065124;28;20392;-46
2023/04/24 01:16:38;;;;;;;;;;;10.70;99.90;;;;;;5054147;28;20431;-50
2023/04/24 01:19:04;;;;;;;;;;;10.70;99.90;;;;;;5055468;28;20013;-53
2023/04/24 01:21:31;;;;;;;;;;;10.70;99.90;;;;;;5055117;28;20372;-50
2023/04/24 01:24:00;;;;;;;;;;;10.70;99.90;;;;;;5053145;28;19970;-47
2023/04/24 01:26:27;;;;;;;;;;;10.70;99.90;;;;;;5052754;28;19933;-49
2023/04/24 01:28:53;;;;;;;;;;;10.70;99.90;;;;;;5059149;28;19935;-48
2023/04/24 01:31:20;;;;;;;;;;;10.70;99.90;;;;;;5054884;28;19935;-47
2023/04/24 01:33:47;;;;;;;;;;;10.70;99.90;;;;;;5053741;28;20050;-55
2023/04/24 01:36:13;;;;;;;;;;;10.70;99.90;;;;;;5052813;28;20301;-47
2023/04/24 01:38:40;;;;;;;;;;;10.70;99.90;;;;;;5054860;28;19935;-47
2023/04/24 01:41:08;;;;;;;;;;;10.70;99.90;;;;;;5049313;28;20028;-51
2023/04/24 01:43:34;;;;;;;;;;;10.70;99.90;;;;;;5035464;28;19935;-51
2023/04/24 01:46:01;;;;;;;;;;;10.70;99.90;;;;;;5048741;28;19931;-48
2023/04/24 01:48:28;;;;;;;;;;;10.70;99.90;;;;;;5042567;28;19940;-46
2023/04/24 01:50:54;;;;;;;;;;;10.70;99.90;;;;;;5053967;28;19987;-49
2023/04/24 01:53:21;;;;;;;;;;;10.70;99.90;;;;;;5052284;28;19967;-52
2023/04/24 01:55:48;;;;;;;;;;;10.70;99.90;;;;;;5041320;28;19931;-50
2023/04/24 01:58:16;;;;;;;;;;;10.60;99.90;;;;;;5039354;28;20013;-51
2023/04/24 02:00:42;;;;;;;;;;;10.60;99.90;;;;;;5058118;28;19934;-47
2023/04/24 02:03:09;;;;;;;;;;;10.60;99.90;;;;;;5051310;28;19940;-51
2023/04/24 02:05:35;;;;;;;;;;;10.50;99.90;;;;;;5040591;28;19936;-55
2023/04/24 02:08:02;;;;;;;;;;;10.50;99.90;;;;;;5048466;28;19931;-48
2023/04/24 02:10:29;;;;;;;;;;;10.50;99.90;;;;;;5061085;28;19938;-51
2023/04/24 02:12:55;;;;;;;;;;;10.50;99.90;;;;;;5054412;28;20434;-47
2023/04/24 02:15:23;;;;;;;;;;;10.50;99.90;;;;;;5052678;28;19935;-51
2023/04/24 02:17:50;;;;;;;;;;;10.50;99.90;;;;;;5037452;28;20258;-44
2023/04/24 02:20:17;;;;;;;;;;;10.40;99.90;;;;;;5037932;28;19998;-50
2023/04/24 02:22:44;;;;;;;;;;;10.40;99.90;;;;;;5045882;28;19938;-53
2023/04/24 02:25:10;;;;;;;;;;;10.40;99.90;;;;;;5054444;28;19995;-51
2023/04/24 02:27:37;;;;;;;;;;;10.40;99.90;;;;;;5052066;28;19924;-48
2023/04/24 02:30:04;;;;;;;;;;;10.40;99.90;;;;;;5053330;28;19938;-51
2023/04/24 02:32:32;;;;;;;;;;;10.40;99.90;;;;;;5051381;28;19982;-50
2023/04/24 02:34:59;;;;;;;;;;;10.30;99.90;;;;;;5052165;28;19939;-54
2023/04/24 02:37:25;;;;;;;;;;;10.30;99.90;;;;;;5050966;28;19951;-53
2023/04/24 02:39:52;;;;;;;;;;;10.30;99.90;;;;;;5041482;28;20027;-50
2023/04/24 02:42:19;;;;;;;;;;;10.30;99.90;;;;;;5040860;28;19976;-48
2023/04/24 02:44:45;;;;;;;;;;;10.30;99.90;;;;;;5042829;28;20019;-51
2023/04/24 02:47:12;;;;;;;;;;;10.30;99.90;;;;;;5045200;28;20452;-50
2023/04/24 02:49:40;;;;;;;;;;;10.30;99.90;;;;;;5051497;28;19986;-48
2023/04/24 02:52:06;;;;;;;;;;;10.30;99.90;;;;;;5068928;28;19988;-50
2023/04/24 02:54:33;;;;;;;;;;;10.30;99.90;;;;;;5062341;28;19944;-47
2023/04/24 02:57:00;;;;;;;;;;;10.30;99.90;;;;;;5051264;28;19950;-48
2023/04/24 02:59:28;;;;;;;;;;;10.30;99.90;;;;;;5039899;28;19936;-48
2023/04/24 03:01:55;;;;;;;;;;;10.30;99.90;;;;;;5060312;28;20003;-47
2023/04/24 03:04:22;;;;;;;;;;;10.20;99.90;;;;;;5052021;28;20084;-52
2023/04/24 03:06:51;;;;;;;;;;;10.20;99.90;;;;;;5050220;28;20014;-49
2023/04/24 03:09:18;;;;;;;;;;;10.20;99.90;;;;;;5062933;28;19964;-46
2023/04/24 03:11:44;;;;;;;;;;;10.20;99.90;;;;;;5038767;28;19987;-50
2023/04/24 03:14:11;;;;;;;;;;;10.10;99.90;;;;;;5035865;28;20023;-50
2023/04/24 03:16:38;;;;;;;;;;;10.10;99.90;;;;;;5039427;28;20032;-49
2023/04/24 03:19:04;;;;;;;;;;;10.10;99.90;;;;;;5059749;28;20391;-52
2023/04/24 03:21:31;;;;;;;;;;;10.10;99.90;;;;;;5050537;28;19933;-49
2023/04/24 03:23:59;;;;;;;;;;;10.10;99.90;;;;;;5051330;28;20051;-49
2023/04/24 03:26:26;;;;;;;;;;;10.10;99.90;;;;;;5049568;28;20025;-46
2023/04/24 03:28:52;;;;;;;;;;;10.10;99.90;;;;;;5066002;28;19992;-48
2023/04/24 03:31:20;;;;;;;;;;;10.10;99.90;;;;;;5037911;28;20004;-44
2023/04/24 03:33:47;;;;;;;;;;;10.10;99.90;;;;;;5052217;28;19938;-47
2023/04/24 03:36:14;;;;;;;;;;;10.00;99.90;;;;;;5041132;28;19945;-46
2023/04/24 03:38:40;;;;;;;;;;;10.00;99.90;;;;;;5046354;28;19959;-51
2023/04/24 03:41:08;;;;;;;;;;;10.00;99.90;;;;;;5030726;28;19937;-45
2023/04/24 03:43:35;;;;;;;;;;;10.00;99.90;;;;;;5047214;28;19938;-53
2023/04/24 03:46:02;;;;;;;;;;;10.00;99.90;;;;;;5048918;28;19935;-48
2023/04/24 03:48:29;;;;;;;;;;;10.00;99.90;;;;;;5052410;28;20269;-48
2023/04/24 03:50:56;;;;;;;;;;;10.00;99.90;;;;;;5052269;28;19991;-53
2023/04/24 03:53:22;;;;;;;;;;;9.90;99.90;;;;;;5038096;28;19937;-51
2023/04/24 03:55:49;;;;;;;;;;;10.00;99.90;;;;;;5049016;28;20345;-47
2023/04/24 03:58:17;;;;;;;;;;;9.90;99.90;;;;;;5047722;28;19960;-49
2023/04/24 04:00:46;;;;;;;;;;;10.00;99.90;;;;;;5049827;28;19933;-50
2023/04/24 04:03:13;;;;;;;;;;;10.00;99.90;;;;;;5042078;28;20330;-50
2023/04/24 04:05:40;;;;;;;;;;;10.00;99.90;;;;;;5041732;28;20240;-50
2023/04/24 04:08:06;;;;;;;;;;;10.00;99.90;;;;;;5051082;28;20061;-51
2023/04/24 04:10:33;;;;;;;;;;;10.00;99.90;;;;;;5052116;28;19984;-49
2023/04/24 04:12:59;;;;;;;;;;;10.00;99.90;;;;;;5046683;28;20505;-50
2023/04/24 04:15:27;;;;;;;;;;;10.00;99.90;;;;;;5049842;28;19938;-51
2023/04/24 04:17:54;;;;;;;;;;;10.00;99.90;;;;;;5052291;28;20046;-50
2023/04/24 04:20:21;;;;;;;;;;;10.00;99.90;;;;;;5052088;28;20011;-51
2023/04/24 04:22:47;;;;;;;;;;;10.00;99.90;;;;;;5052197;28;19998;-50
2023/04/24 04:25:14;;;;;;;;;;;9.90;99.90;;;;;;5051687;28;19981;-50
2023/04/24 04:27:41;;;;;;;;;;;9.90;99.90;;;;;;5051219;28;20045;-47
2023/04/24 04:30:09;;;;;;;;;;;9.90;99.90;;;;;;5051879;28;20357;-48
2023/04/24 04:32:38;;;;;;;;;;;9.90;99.90;;;;;;5064291;28;20309;-52
2023/04/24 04:35:05;;;;;;;;;;;9.90;99.90;;;;;;5063675;28;20347;-47
2023/04/24 04:37:33;;;;;;;;;;;9.90;99.90;;;;;;5071840;28;19956;-48
2023/04/24 04:39:59;;;;;;;;;;;9.80;99.90;;;;;;5065825;28;19936;-50
2023/04/24 04:42:26;;;;;;;;;;;9.90;99.90;;;;;;5074695;28;19935;-47
2023/04/24 04:44:53;;;;;;;;;;;9.80;99.90;;;;;;5061838;28;20322;-49
2023/04/24 04:47:21;;;;;;;;;;;9.90;99.90;;;;;;5055931;28;20002;-51
2023/04/24 04:49:50;;;;;;;;;;;9.80;99.90;;;;;;5055865;28;19941;-47
2023/04/24 04:52:17;;;;;;;;;;;9.80;99.90;;;;;;5066478;28;19934;-49
2023/04/24 04:54:44;;;;;;;;;;;9.80;99.90;;;;;;5063206;28;20031;-47
2023/04/24 04:57:11;;;;;;;;;;;9.80;99.90;;;;;;5055458;28;20377;-48
2023/04/24 04:59:38;;;;;;;;;;;9.90;99.90;;;;;;5056080;28;20344;-47
2023/04/24 05:02:05;;;;;;;;;;;9.80;99.90;;;;;;5052451;28;19938;-51
2023/04/24 05:04:32;;;;;;;;;;;9.80;99.90;;;;;;5054540;28;20034;-52
2023/04/24 05:07:00;;;;;;;;;;;9.90;99.90;;;;;;5071331;28;19996;-55
2023/04/24 05:09:27;;;;;;;;;;;9.90;99.90;;;;;;5075314;28;20451;-51
2023/04/24 05:11:54;;;;;;;;;;;9.80;99.90;;;;;;5061490;28;20025;-50
2023/04/24 05:14:20;;;;;;;;;;;9.90;99.90;;;;;;5069131;28;19935;-51
2023/04/24 05:16:47;;;;;;;;;;;9.90;99.90;;;;;;5072268;28;19939;-50
2023/04/24 05:19:14;;;;;;;;;;;9.80;99.90;;;;;;5071919;28;20042;-44
2023/04/24 05:21:41;;;;;;;;;;;9.80;99.90;;;;;;5065599;28;19958;-43
2023/04/24 05:24:09;;;;;;;;;;;9.80;99.90;;;;;;5053567;28;19935;-44
2023/04/24 05:26:36;;;;;;;;;;;9.80;99.90;;;;;;5055167;28;19971;-52
2023/04/24 05:29:03;;;;;;;;;;;9.80;99.90;;;;;;5055263;28;20408;-50
2023/04/24 05:31:29;;;;;;;;;;;9.80;99.90;;;;;;5065474;28;19941;-52
2023/04/24 05:33:56;;;;;;;;;;;9.80;99.90;;;;;;5068022;28;20002;-57
2023/04/24 05:36:23;;;;;;;;;;;9.80;99.90;;;;;;5073847;28;19987;-50
2023/04/24 05:38:49;;;;;;;;;;;9.80;99.90;;;;;;5055924;28;19962;-49
2023/04/24 05:41:17;;;;;;;;;;;9.80;99.90;;;;;;5056530;28;19966;-55
2023/04/24 05:43:44;;;;;;;;;;;9.80;99.90;;;;;;5054431;28;19937;-58
2023/04/24 05:46:11;;;;;;;;;;;9.90;99.90;;;;;;5053748;28;19986;-52
2023/04/24 05:48:38;;;;;;;;;;;9.80;99.90;;;;;;5053559;28;19940;-52
2023/04/24 05:51:05;;;;;;;;;;;9.90;99.90;;;;;;5054079;28;19980;-47
2023/04/24 05:53:31;;;;;;;;;;;9.90;99.90;;;;;;5066218;28;19990;-53
2023/04/24 05:55:58;;;;;;;;;;;9.90;99.90;;;;;;5074554;28;20434;-50
2023/04/24 05:58:26;;;;;;;;;;;10.00;99.90;;;;;;5074306;28;20479;-52
2023/04/24 06:00:53;;;;;;;;;;;10.00;99.90;;;;;;5057308;28;19935;-48
2023/04/24 06:03:19;;;;;;;;;;;10.00;99.90;;;;;;5053350;28;19943;-54
2023/04/24 06:05:46;;;;;;;;;;;10.10;99.90;;;;;;5053307;28;20399;-52
2023/04/24 06:08:13;;;;;;;;;;;10.10;99.90;;;;;;5054346;28;20585;-57
2023/04/24 06:10:40;;;;;;;;;;;10.10;99.90;;;;;;5053584;28;20398;-55
2023/04/24 06:13:06;;;;;;;;;;;10.20;99.90;;;;;;5063238;28;20388;-53
2023/04/24 06:15:34;;;;;;;;;;;10.20;99.90;;;;;;5057484;28;19984;-53
2023/04/24 06:18:01;;;;;;;;;;;10.20;99.90;;;;;;5049924;28;20041;-55
2023/04/24 06:20:27;;;;;;;;;;;10.20;99.90;;;;;;5049415;28;19958;-53
2023/04/24 06:22:54;;;;;;;;;;;10.30;99.90;;;;;;5052278;28;20045;-49
2023/04/24 06:25:21;;;;;;;;;;;10.30;99.90;;;;;;5053404;28;20307;-49
2023/04/24 06:27:48;;;;;;;;;;;10.40;99.90;;;;;;5054059;28;19920;-54
2023/04/24 06:30:14;;;;;;;;;;;10.40;99.90;;;;;;5054201;28;20666;-49
2023/04/24 06:32:42;;;;;;;;;;;10.40;99.90;;;;;;5071620;28;19937;-49
2023/04/24 06:35:09;;;;;;;;;;;10.40;99.90;;;;;;5053507;28;19988;-48
2023/04/24 06:37:36;;;;;;;;;;;10.40;99.90;;;;;;5070667;28;19937;-51
2023/04/24 06:40:03;;;;;;;;;;;10.40;99.90;;;;;;5073585;28;20053;-53
2023/04/24 06:42:29;;;;;;;;;;;10.40;99.90;;;;;;5071608;28;19990;-54
2023/04/24 06:44:56;;;;;;;;;;;10.50;99.90;;;;;;5052262;28;19939;-58
2023/04/24 06:47:23;;;;;;;;;;;10.50;99.90;;;;;;5052781;28;19966;-53
2023/04/24 06:49:52;;;;;;;;;;;10.50;99.90;;;;;;5053441;28;20299;-51
2023/04/24 06:52:18;;;;;;;;;;;10.50;99.90;;;;;;5053848;28;20023;-51
2023/04/24 06:54:45;;;;;;;;;;;10.50;99.90;;;;;;5051687;28;19993;-47
2023/04/24 06:57:12;;;;;;;;;;;10.50;99.90;;;;;;5052005;28;20042;-53
2023/04/24 06:59:38;;;;;;;;;;;10.50;99.90;;;;;;5053139;28;19931;-54
2023/04/24 07:02:05;;;;;;;;;;;10.50;99.90;;;;;;5050657;28;20458;-52
2023/04/24 07:04:32;;;;;;;;;;;10.50;99.90;;;;;;5039725;28;19940;-53
2023/04/24 07:07:00;;;;;;;;;;;10.60;99.90;;;;;;5049229;28;19937;-56
2023/04/24 07:09:27;;;;;;;;;;;10.60;99.90;;;;;;5033866;28;20313;-47
2023/04/24 07:11:54;;;;;;;;;;;10.60;99.90;;;;;;5052207;28;20348;-48
2023/04/24 07:14:20;;;;;;;;;;;10.50;99.90;;;;;;5052125;28;19943;-51
2023/04/24 07:16:47;;;;;;;;;;;10.50;99.90;;;;;;5051836;28;19941;-53
2023/04/24 07:19:14;;;;;;;;;;;10.50;99.90;;;;;;5051681;28;20003;-46
2023/04/24 07:21:41;;;;;;;;;;;10.50;99.90;;;;;;5051953;28;19941;-52
2023/04/24 07:24:10;;;;;;;;;;;10.50;99.90;;;;;;5050073;28;19990;-44
2023/04/24 07:26:37;;;;;;;;;;;10.50;99.90;;;;;;5052137;28;19961;-51
2023/04/24 07:29:03;;;;;;;;;;;10.50;99.90;;;;;;5052858;28;19974;-50
2023/04/24 07:31:30;;;;;;;;;;;10.40;99.90;;;;;;5051158;28;20481;-51
2023/04/24 07:33:58;;;;;;;;;;;10.40;99.90;;;;;;5051894;28;19943;-51
2023/04/24 07:36:25;;;;;;;;;;;10.30;99.90;;;;;;5051401;28;20298;-54
2023/04/24 07:38:52;;;;;;;;;;;10.40;99.90;;;;;;5051782;28;19993;-58
2023/04/24 07:41:21;;;;;;;;;;;10.40;99.90;;;;;;5052575;28;20449;-53
2023/04/24 07:43:47;;;;;;;;;;;10.40;99.90;;;;;;5052062;28;20022;-49
2023/04/24 07:46:14;;;;;;;;;;;10.40;99.90;;;;;;5052542;28;19991;-55
2023/04/24 07:48:41;;;;;;;;;;;10.40;99.90;;;;;;5052955;28;20053;-52
2023/04/24 07:51:09;;;;;;;;;;;10.30;99.90;;;;;;5051759;28;19938;-49
2023/04/24 07:53:36;;;;;;;;;;;10.30;99.90;;;;;;5052020;28;19947;-52
2023/04/24 07:56:03;;;;;;;;;;;10.30;99.90;;;;;;5051611;28;20372;-54
2023/04/24 07:58:31;;;;;;;;;;;10.30;99.90;;;;;;5052407;28;19954;-54
2023/04/24 08:00:57;;;;;;;;;;;10.20;99.90;;;;;;5052333;28;19964;-53
2023/04/24 08:03:24;;;;;;;;;;;10.30;99.90;;;;;;5052008;28;20028;-50
2023/04/24 08:05:51;;;;;;;;;;;10.20;99.90;;;;;;5049997;28;20499;-52
2023/04/24 08:08:18;;;;;;;;;;;10.30;99.90;;;;;;5051460;28;19936;-55
2023/04/24 08:10:45;;;;;;;;;;;10.20;99.90;;;;;;5052454;28;19937;-53
2023/04/24 08:13:12;;;;;;;;;;;10.30;99.90;;;;;;5051692;28;19935;-52
2023/04/24 08:15:40;;;;;;;;;;;10.30;99.90;;;;;;5053770;28;20313;-52
2023/04/24 08:18:06;;;;;;;;;;;10.30;99.90;;;;;;5056580;28;19942;-53
2023/04/24 08:20:33;;;;;;;;;;;10.30;99.90;;;;;;5056494;28;20017;-49
2023/04/24 08:23:00;;;;;;;;;;;10.20;99.90;;;;;;5054800;28;20421;-55
2023/04/24 08:25:26;;;;;;;;;;;10.20;99.90;;;;;;5056407;28;19937;-49
2023/04/24 08:27:54;;;;;;;;;;;10.20;99.90;;;;;;5056424;28;19983;-51
2023/04/24 08:30:21;;;;;;;;;;;10.20;99.90;;;;;;5056195;28;19981;-54
2023/04/24 08:32:48;;;;;;;;;;;10.10;99.90;;;;;;5054870;28;19957;-45
2023/04/24 08:35:18;;;;;;;;;;;10.10;99.90;;;;;;5054266;28;20452;-52
2023/04/24 08:37:45;;;;;;;;;;;10.10;99.90;;;;;;5055132;28;20037;-51
2023/04/24 08:40:13;;;;;;;;;;;10.10;99.90;;;;;;5054605;28;19972;-46
2023/04/24 08:42:40;;;;;;;;;;;10.00;99.90;;;;;;5045771;28;19987;-45
2023/04/24 08:45:08;;;;;;;;;;;10.00;99.90;;;;;;5050897;28;19962;-48
2023/04/24 08:47:34;;;;;;;;;;;10.00;99.90;;;;;;5044927;28;19989;-55
2023/04/24 08:50:02;;;;;;;;;;;9.90;99.90;;;;;;5066594;28;20008;-49
2023/04/24 08:52:29;;;;;;;;;;;9.90;99.90;;;;;;5055929;28;19992;-51
2023/04/24 08:54:56;;;;;;;;;;;9.90;99.90;;;;;;5055189;28;19981;-51
2023/04/24 08:57:22;;;;;;;;;;;9.90;99.90;;;;;;5055663;28;19989;-53
2023/04/24 08:59:49;;;;;;;;;;;9.90;99.90;;;;;;5054495;28;19963;-47
2023/04/24 09:02:15;;;;;;;;;;;9.80;99.90;;;;;;5054711;28;19937;-51
2023/04/24 09:04:42;;;;;;;;;;;9.80;99.90;;;;;;5052797;28;19987;-50
2023/04/24 09:07:10;;;;;;;;;;;9.80;99.90;;;;;;5055747;28;19998;-52
2023/04/24 09:09:37;;;;;;;;;;;9.70;99.90;;;;;;5052166;28;20142;-48
2023/04/24 09:12:03;;;;;;;;;;;9.70;99.90;;;;;;5054930;28;19936;-50
2023/04/24 09:14:31;;;;;;;;;;;9.70;99.90;;;;;;5053972;28;19976;-52
2023/04/24 09:16:58;;;;;;;;;;;9.60;99.90;;;;;;5055597;28;20371;-47
2023/04/24 09:19:25;;;;;;;;;;;9.60;99.90;;;;;;5053901;28;20049;-52
2023/04/24 09:21:51;;;;;;;;;;;9.60;99.90;;;;;;5056333;28;20276;-52
2023/04/24 09:24:22;;;;;;;;;;;9.60;99.90;;;;;;5056032;28;19937;-54
2023/04/24 09:26:49;;;;;;;;;;;9.60;99.90;;;;;;5061121;28;20341;-51
2023/04/24 09:29:16;;;;;;;;;;;9.60;99.90;;;;;;5053854;28;19985;-50
2023/04/24 09:31:43;;;;;;;;;;;9.70;99.90;;;;;;5054935;28;20391;-47
2023/04/24 09:34:09;;;;;;;;;;;9.70;99.90;;;;;;5052897;28;19942;-49
2023/04/24 09:36:37;;;;;;;;;;;9.70;99.90;;;;;;5053284;28;19966;-45
2023/04/24 09:39:05;;;;;;;;;;;9.70;99.90;;;;;;5056708;28;20446;-48
2023/04/24 09:41:34;;;;;;;;;;;9.80;99.90;;;;;;5063483;28;19937;-48
2023/04/24 09:44:02;;;;;;;;;;;9.80;99.90;;;;;;5054478;28;19921;-51
2023/04/24 09:46:33;;;;;;;;;;;9.80;99.90;;;;;;5053197;28;20482;-50
2023/04/24 09:49:04;;;;;;;;;;;9.70;99.90;;;;;;5054887;28;20033;-50
2023/04/24 09:51:34;;;;;;;;;;;9.70;99.90;;;;;;5053512;28;20294;-50
2023/04/24 09:54:00;;;;;;;;;;;9.70;99.90;;;;;;5054710;28;19941;-51
2023/04/24 09:56:28;;;;;;;;;;;9.70;99.90;;;;;;5053996;28;20315;-52
2023/04/24 09:59:06;;;;;;;;;;;9.60;99.90;;;;;;5051000;28;19932;-48
2023/04/24 10:01:33;;;;;;;;;;;9.60;99.90;;;;;;5052814;28;20039;-51
2023/04/24 10:03:59;;;;;;;;;;;9.60;99.90;;;;;;5052680;28;19987;-52
2023/04/24 10:06:30;;;;;;;;;;;9.60;99.90;;;;;;5053400;28;19983;-50
2023/04/24 10:08:58;;;;;;;;;;;9.70;99.90;;;;;;5052757;28;19978;-51
2023/04/24 10:11:24;;;;;;;;;;;9.80;99.90;;;;;;5053389;28;19939;-52
2023/04/24 10:13:51;;;;;;;;;;;9.80;99.90;;;;;;5053462;28;19958;-46
2023/04/24 10:16:19;;;;;;;;;;;9.90;99.90;;;;;;5054202;28;19989;-47
2023/04/24 10:18:46;;;;;;;;;;;9.90;99.90;;;;;;5052500;28;19955;-49
2023/04/24 10:21:12;;;;;;;;;;;9.90;99.90;;;;;;5054130;28;20009;-54
2023/04/24 10:23:39;;;;;;;;;;;10.00;99.90;;;;;;5053928;28;20448;-50
2023/04/24 10:26:05;;;;;;;;;;;10.00;99.90;;;;;;5054023;28;19984;-49
2023/04/24 10:28:32;;;;;;;;;;;10.00;99.90;;;;;;5053321;28;19933;-51
2023/04/24 10:30:59;;;;;;;;;;;10.00;99.90;;;;;;5053188;28;19946;-54
2023/04/24 10:33:27;;;;;;;;;;;9.90;99.90;;;;;;5053985;28;19940;-47
2023/04/24 10:35:53;;;;;;;;;;;9.80;99.90;;;;;;5053901;28;19981;-51
2023/04/24 10:38:23;;;;;;;;;;;9.80;99.90;;;;;;5052893;28;20361;-52
2023/04/24 10:40:50;;;;;;;;;;;9.70;99.90;;;;;;5053000;28;19963;-50
2023/04/24 10:43:17;;;;;;;;;;;9.70;99.90;;;;;;5052776;28;20049;-48
2023/04/24 10:45:44;;;;;;;;;;;9.60;99.90;;;;;;5052700;28;19934;-53
2023/04/24 10:48:13;;;;;;;;;;;9.60;99.90;;;;;;5053740;28;19937;-47
2023/04/24 10:50:44;;;;;;;;;;;9.60;99.90;;;;;;5053560;28;20007;-50
2023/04/24 10:53:16;;;;;;;;;;;9.50;99.90;;;;;;5052811;28;19947;-48
2023/04/24 10:55:44;;;;;;;;;;;9.50;99.90;;;;;;5052714;28;20472;-51
2023/04/24 10:58:11;;;;;;;;;;;9.60;99.90;;;;;;5052687;28;20007;-49
2023/04/24 11:00:38;;;;;;;;;;;9.60;99.90;;;;;;5053374;28;19955;-50
2023/04/24 11:03:10;;;;;;;;;;;9.70;99.90;;;;;;5052331;28;20039;-49
2023/04/24 11:05:51;;;;;;;;;;;9.80;99.90;;;;;;5051691;28;20521;-51
2023/04/24 11:08:22;;;;;;;;;;;9.90;99.90;;;;;;5052611;28;19938;-50
2023/04/24 11:10:55;;;;;;;;;;;10.00;99.90;;;;;;5051496;28;19962;-48
2023/04/24 11:13:22;;;;;;;;;;;10.00;99.90;;;;;;5052141;28;19966;-52
2023/04/24 11:15:55;;;;;;;;;;;9.90;99.90;;;;;;5053260;28;19995;-49
2023/04/24 11:18:22;;;;;;;;;;;9.90;99.90;;;;;;5052919;28;19943;-51
2023/04/24 11:20:49;;;;;;;;;;;9.90;99.90;;;;;;5052216;28;19954;-50
2023/04/24 11:23:18;;;;;;;;;;;9.80;99.90;;;;;;5052925;28;20319;-47
2023/04/24 11:25:46;;;;;;;;;;;9.80;99.90;;;;;;5053023;28;19946;-51
2023/04/24 11:28:15;;;;;;;;;;;9.80;99.90;;;;;;5051926;28;20399;-45
2023/04/24 11:30:42;;;;;;;;;;;9.80;99.90;;;;;;5051335;28;19936;-47
2023/04/24 11:33:08;;;;;;;;;;;9.80;99.90;;;;;;5052576;28;19944;-45
2023/04/24 11:35:37;;;;;;;;;;;9.70;99.90;;;;;;5060345;28;20008;-43
2023/04/24 11:38:05;;;;;;;;;;;9.80;99.90;;;;;;5069628;28;19924;-48
2023/04/24 11:40:33;;;;;;;;;;;9.80;99.90;;;;;;5072801;28;20363;-43
2023/04/24 11:43:00;;;;;;;;;;;9.90;99.90;;;;;;5063622;28;20378;-45
2023/04/24 11:45:27;;;;;;;;;;;10.00;99.90;;;;;;5054566;28;19982;-48
2023/04/24 11:47:54;;;;;;;;;;;10.00;99.90;;;;;;5072478;28;20040;-48
2023/04/24 11:50:21;;;;;;;;;;;10.10;99.90;;;;;;5065501;28;19937;-49
2023/04/24 11:52:48;;;;;;;;;;;10.10;99.90;;;;;;5051849;28;19921;-46
2023/04/24 11:55:24;;;;;;;;;;;10.20;99.90;;;;;;5043039;28;19990;-47
2023/04/24 11:57:52;;;;;;;;;;;10.10;99.90;;;;;;5072360;28;19958;-44
2023/04/24 12:00:20;;;;;;;;;;;10.00;99.90;;;;;;5066703;28;19943;-44
2023/04/24 12:02:47;;;;;;;;;;;10.00;99.90;;;;;;5051433;28;20027;-45
2023/04/24 12:05:20;;;;;;;;;;;9.90;99.90;;;;;;5052665;28;20015;-45
2023/04/24 12:07:46;;;;;;;;;;;9.90;99.90;;;;;;5051741;28;19979;-46
2023/04/24 12:10:14;;;;;;;;;;;9.90;99.90;;;;;;5052479;28;19937;-47
2023/04/24 12:12:41;;;;;;;;;;;9.80;99.90;;;;;;5044659;28;20001;-46
2023/04/24 12:15:09;;;;;;;;;;;9.90;99.90;;;;;;5070777;28;20384;-48
2023/04/24 12:17:36;;;;;;;;;;;9.90;99.90;;;;;;5068871;28;19936;-48
2023/04/24 12:20:03;;;;;;;;;;;10.00;99.90;;;;;;5055132;28;19956;-49
2023/04/24 12:22:44;;;;;;;;;;;10.00;99.90;;;;;;5065602;28;20283;-47
2023/04/24 12:25:10;;;;;;;;;;;10.10;99.90;;;;;;5048836;28;19945;-49
2023/04/24 12:27:37;;;;;;;;;;;10.20;99.90;;;;;;5054170;28;20418;-46
2023/04/24 12:30:04;;;;;;;;;;;10.30;99.90;;;;;;5051289;28;19935;-50
2023/04/24 12:32:32;;;;;;;;;;;10.40;99.90;;;;;;5070857;28;19946;-48
2023/04/24 12:34:59;;;;;;;;;;;10.50;99.90;;;;;;5054974;28;19933;-50
2023/04/24 12:37:26;;;;;;;;;;;10.60;99.90;;;;;;5051328;28;19943;-47
2023/04/24 12:40:00;;;;;;;;;;;10.60;99.90;;;;;;5050597;28;19993;-48
2023/04/24 12:42:26;;;;;;;;;;;10.80;99.90;;;;;;5050262;28;19944;-48
2023/04/24 12:44:56;;;;;;;;;;;10.80;99.90;;;;;;5050294;28;20005;-48
2023/04/24 12:47:23;;;;;;;;;;;10.90;99.90;;;;;;5050579;28;20391;-50
2023/04/24 12:49:52;;;;;;;;;;;10.90;99.90;;;;;;5051403;28;20474;-50
2023/04/24 12:52:22;;;;;;;;;;;11.00;99.90;;;;;;5050914;28;20378;-49
2023/04/24 12:54:48;;;;;;;;;;;11.00;99.90;;;;;;5049949;28;19936;-47
2023/04/24 12:57:15;;;;;;;;;;;11.00;99.90;;;;;;5051831;28;19941;-51
2023/04/24 12:59:42;;;;;;;;;;;11.00;99.90;;;;;;5052138;28;19933;-47
2023/04/24 13:02:09;;;;;;;;;;;10.90;99.90;;;;;;5052313;28;20442;-50
2023/04/24 13:04:36;;;;;;;;;;;10.80;99.90;;;;;;5050103;28;19979;-50
2023/04/24 13:07:04;;;;;;;;;;;10.70;99.90;;;;;;5061182;28;20397;-44
2023/04/24 13:09:31;;;;;;;;;;;10.60;99.90;;;;;;5071846;28;19940;-48
2023/04/24 13:11:57;;;;;;;;;;;10.40;99.90;;;;;;5075281;28;19945;-47
2023/04/24 13:14:24;;;;;;;;;;;10.40;99.90;;;;;;5046991;28;19997;-48
2023/04/24 13:16:51;;;;;;;;;;;10.30;99.90;;;;;;5071229;28;19974;-50
2023/04/24 13:19:17;;;;;;;;;;;10.30;99.90;;;;;;5071705;28;19982;-52
2023/04/24 13:21:44;;;;;;;;;;;10.40;99.90;;;;;;5064891;28;19979;-51
2023/04/24 13:24:12;;;;;;;;;;;10.30;99.90;;;;;;5075178;28;20447;-48
2023/04/24 13:26:39;;;;;;;;;;;10.30;99.90;;;;;;5056413;28;19951;-51
2023/04/24 13:29:06;;;;;;;;;;;10.30;99.90;;;;;;5065697;28;20354;-49
2023/04/24 13:31:32;;;;;;;;;;;10.30;99.90;;;;;;5054852;28;19938;-48
2023/04/24 13:33:59;;;;;;;;;;;10.30;99.90;;;;;;5053146;28;19932;-51
2023/04/24 13:36:26;;;;;;;;;;;10.30;99.90;;;;;;5055008;28;19936;-51
2023/04/24 13:38:53;;;;;;;;;;;10.20;99.90;;;;;;5054858;28;19936;-50
2023/04/24 13:41:21;;;;;;;;;;;10.10;99.90;;;;;;5053589;28;19955;-48
2023/04/24 13:43:47;;;;;;;;;;;10.20;99.90;;;;;;5054043;28;20313;-51
2023/04/24 13:46:14;;;;;;;;;;;10.10;99.90;;;;;;5043403;28;20056;-50
2023/04/24 13:48:41;;;;;;;;;;;10.00;99.90;;;;;;5054987;28;19954;-51
2023/04/24 13:51:07;;;;;;;;;;;10.00;99.90;;;;;;5059256;28;20027;-44
2023/04/24 13:53:38;;;;;;;;;;;9.90;99.90;;;;;;5053147;28;20468;-47
2023/04/24 13:56:04;;;;;;;;;;;9.80;99.90;;;;;;5033999;28;19941;-47
2023/04/24 13:58:32;;;;;;;;;;;9.70;99.90;;;;;;5034814;28;20326;-47
2023/04/24 14:00:59;;;;;;;;;;;9.70;99.90;;;;;;5033384;28;19957;-40
2023/04/24 14:03:26;;;;;;;;;;;9.60;99.90;;;;;;5059287;28;19971;-49
2023/04/24 14:05:52;;;;;;;;;;;9.70;99.90;;;;;;5054982;28;19984;-47
2023/04/24 14:08:19;;;;;;;;;;;9.70;99.90;;;;;;5058197;28;19987;-47
2023/04/24 14:10:45;;;;;;;;;;;9.70;99.90;;;;;;5050206;28;19972;-46
2023/04/24 14:13:12;;;;;;;;;;;9.80;99.90;;;;;;5061368;28;19939;-51
2023/04/24 14:15:40;;;;;;;;;;;9.80;99.90;;;;;;5071723;28;19944;-52
2023/04/24 14:18:07;;;;;;;;;;;9.80;99.90;;;;;;5059055;28;19937;-49
2023/04/24 14:20:33;;;;;;;;;;;9.90;99.90;;;;;;5052219;28;20490;-49